KPWA/PWA METAR and TAF weather

Enter ICAO airport designator
Station Type Date Time Source
KPWA METAR 2021/04/14 18:53 UTC NOAA

KPWA 141853Z 06013KT 10SM OVC036 14/02 A3015 RMK AO2 SLP208 T01440022


Station Type Date Time Source
KPWA Decoded METAR 2021/04/14 18:53 UTC NOAA

WILEY POST, OK, United States (KPWA) 35-32N 97-39W 397M
Apr 14, 2021 - 02:53 PM EDT / 2021.04.14 1853 UTC
Wind: from the ENE (060 degrees) at 15 MPH (13 KT):0
Visibility: 10 mile(s):0
Sky conditions: overcast
Temperature: 57.9 F (14.4 C)
Dew Point: 36.0 F (2.2 C)
Relative Humidity: 43%
Pressure (altimeter): 30.15 in. Hg (1020 hPa)
ob: KPWA 141853Z 06013KT 10SM OVC036 14/02 A3015 RMK AO2 SLP208 T01440022
cycle: 19

Station Type Date Time Source
KPWA TAF UTC NOAA

Error!

Example: see airport list